createdAt,value
2019-02-07T00:01:22.617Z,94.64
2019-02-07T00:03:52.835Z,94.85
2019-02-07T00:06:23.092Z,94.68
2019-02-07T00:08:53.665Z,94.72
2019-02-07T00:11:23.659Z,94.69
2019-02-07T00:13:53.661Z,94.57
2019-02-07T00:16:24.149Z,94.75
2019-02-07T00:18:54.207Z,94.60
2019-02-07T00:21:24.206Z,94.52
2019-02-07T00:23:54.501Z,94.63
2019-02-07T00:26:24.509Z,94.76
2019-02-07T00:28:54.473Z,94.69
2019-02-07T00:31:25.027Z,94.76
2019-02-07T00:33:54.999Z,94.66
2019-02-07T00:36:25.015Z,94.69
2019-02-07T00:38:55.160Z,94.71
2019-02-07T00:41:25.175Z,94.76
2019-02-07T00:43:55.577Z,94.44
2019-02-07T00:46:25.649Z,94.31
2019-02-07T00:48:55.669Z,94.28
2019-02-07T00:51:25.680Z,93.98
2019-02-07T00:53:55.673Z,93.50
2019-02-07T00:56:25.657Z,93.81
2019-02-07T00:58:55.703Z,93.73
2019-02-07T01:01:25.685Z,93.50
2019-02-07T01:03:55.721Z,93.76
2019-02-07T01:06:25.885Z,92.93
2019-02-07T01:08:55.911Z,93.24
2019-02-07T01:11:26.773Z,93.40
2019-02-07T01:13:56.843Z,93.00
2019-02-07T01:16:27.095Z,92.94
2019-02-07T01:18:57.065Z,93.96
2019-02-07T01:21:27.419Z,94.10
2019-02-07T01:23:57.651Z,94.34
2019-02-07T01:26:28.038Z,94.40
2019-02-07T01:28:58.135Z,93.88
2019-02-07T01:31:28.213Z,94.02
2019-02-07T01:33:58.299Z,94.21
2019-02-07T01:36:29.979Z,94.06
2019-02-07T01:39:00.435Z,93.67
2019-02-07T01:41:30.599Z,93.65
2019-02-07T01:44:00.631Z,93.23
2019-02-07T01:46:30.678Z,92.93
2019-02-07T01:49:00.769Z,92.47
2019-02-07T01:51:30.827Z,92.32
2019-02-07T01:54:01.371Z,92.08
2019-02-07T01:56:31.431Z,92.34
2019-02-07T01:59:01.487Z,92.12
2019-02-07T02:01:31.575Z,92.45
2019-02-07T02:04:02.120Z,91.93
2019-02-07T02:06:32.206Z,92.21
2019-02-07T02:09:02.269Z,92.00
2019-02-07T02:11:32.323Z,91.73
2019-02-07T02:14:02.366Z,91.79
2019-02-07T02:16:32.363Z,91.41
2019-02-07T02:19:02.440Z,91.60
2019-02-07T02:21:32.912Z,91.50
2019-02-07T02:24:03.080Z,91.51
2019-02-07T02:26:33.243Z,91.44
2019-02-07T02:29:03.402Z,91.33
2019-02-07T02:31:33.532Z,91.17
2019-02-07T02:34:03.609Z,91.08
2019-02-07T02:36:33.796Z,90.75
2019-02-07T02:39:06.311Z,90.75
2019-02-07T02:41:36.319Z,90.58
2019-02-07T02:44:06.496Z,90.75
2019-02-07T02:46:36.509Z,90.73
2019-02-07T02:49:06.588Z,90.22
2019-02-07T02:51:36.600Z,90.17
2019-02-07T02:54:06.668Z,90.15
2019-02-07T02:56:36.674Z,90.14
2019-02-07T02:59:06.671Z,90.21
2019-02-07T03:01:45.964Z,89.90
2019-02-07T03:04:40.966Z,89.58
2019-02-07T03:07:28.791Z,90.04
2019-02-07T03:10:24.662Z,89.98
2019-02-07T03:13:31.744Z,89.98
2019-02-07T03:16:11.079Z,89.83
2019-02-07T03:18:53.100Z,89.41
2019-02-07T03:21:34.029Z,89.68
2019-02-07T03:24:18.326Z,89.78
2019-02-07T03:27:01.449Z,89.29
2019-02-07T03:29:53.966Z,89.15
2019-02-07T03:32:38.341Z,88.55
2019-02-07T03:35:26.619Z,88.35
2019-02-07T03:38:14.020Z,88.60
2019-02-07T03:41:02.676Z,88.31
2019-02-07T03:43:54.404Z,87.97
2019-02-07T03:46:42.180Z,88.14
2019-02-07T03:49:23.704Z,88.33
2019-02-07T03:52:15.772Z,88.42
2019-02-07T03:55:07.476Z,88.10
2019-02-07T03:58:14.661Z,87.82
2019-02-07T04:01:03.115Z,87.63
2019-02-07T04:04:01.422Z,86.91
2019-02-07T04:06:56.258Z,87.32
2019-02-07T04:09:47.946Z,87.69
2019-02-07T04:12:39.992Z,87.18
2019-02-07T04:15:18.075Z,86.77
2019-02-07T04:18:10.129Z,86.78
2019-02-07T04:21:17.540Z,87.25
2019-02-07T04:24:12.735Z,87.08
2019-02-07T04:27:08.052Z,87.44
2019-02-07T04:29:59.805Z,86.63
2019-02-07T04:33:02.393Z,87.07
2019-02-07T04:35:54.511Z,87.59
2019-02-07T04:38:42.517Z,86.98
2019-02-07T04:41:40.822Z,87.12
2019-02-07T04:44:38.936Z,87.21
2019-02-07T04:47:27.927Z,87.10
2019-02-07T04:50:15.498Z,87.01
2019-02-07T04:52:52.931Z,86.33
2019-02-07T04:55:41.112Z,86.88
2019-02-07T04:58:39.376Z,86.00
2019-02-07T05:01:27.227Z,86.29
2019-02-07T05:04:25.164Z,86.45
2019-02-07T05:07:15.704Z,85.64
2019-02-07T05:10:03.167Z,86.20
2019-02-07T05:12:50.857Z,86.25
2019-02-07T05:15:39.785Z,85.69
2019-02-07T05:18:37.722Z,85.44
2019-02-07T05:21:27.021Z,85.59
2019-02-07T05:24:34.167Z,85.63
2019-02-07T05:27:19.634Z,85.73
2019-02-07T05:30:11.829Z,84.46
2019-02-07T05:33:03.797Z,85.26
2019-02-07T05:35:51.466Z,84.70
2019-02-07T05:38:40.411Z,84.47
2019-02-07T05:41:19.991Z,83.82
2019-02-07T05:44:07.999Z,84.14
2019-02-07T05:47:15.148Z,83.85
2019-02-07T05:50:16.243Z,83.75
2019-02-07T05:53:07.837Z,83.83
2019-02-07T05:55:56.964Z,83.29
2019-02-07T05:58:45.897Z,83.56
2019-02-07T06:01:30.439Z,83.00
2019-02-07T06:04:18.227Z,82.41
2019-02-07T06:07:16.361Z,81.98
2019-02-07T06:10:10.849Z,82.03
2019-02-07T06:13:07.287Z,82.21
2019-02-07T06:15:57.013Z,82.04
2019-02-07T06:18:55.528Z,81.51
2019-02-07T06:21:43.435Z,81.98
2019-02-07T06:24:38.228Z,82.05
2019-02-07T06:27:25.828Z,82.01
2019-02-07T06:30:06.689Z,82.19
2019-02-07T06:32:54.331Z,81.69
2019-02-07T06:35:43.369Z,82.15
2019-02-07T06:38:31.339Z,81.88
2019-02-07T06:41:23.095Z,82.10
2019-02-07T06:44:10.609Z,81.61
2019-02-07T06:47:13.498Z,81.95
2019-02-07T06:50:11.222Z,82.26
2019-02-07T06:53:00.173Z,82.27
2019-02-07T06:56:04.207Z,81.98
2019-02-07T06:58:51.799Z,81.32
2019-02-07T07:01:40.747Z,81.24
2019-02-07T07:04:29.677Z,81.02
2019-02-07T07:07:24.708Z,81.01
2019-02-07T07:10:29.120Z,80.57
2019-02-07T07:13:20.858Z,80.86
2019-02-07T07:16:05.452Z,80.46
2019-02-07T07:18:53.436Z,80.32
2019-02-07T07:21:54.575Z,80.22
2019-02-07T07:24:55.694Z,80.36
2019-02-07T07:27:46.445Z,80.29
2019-02-07T07:30:41.424Z,79.78
2019-02-07T07:33:38.717Z,81.19
2019-02-07T07:36:30.662Z,80.99
2019-02-07T07:39:32.064Z,80.42
2019-02-07T07:42:20.987Z,81.23
2019-02-07T07:45:08.971Z,80.42
2019-02-07T07:48:00.978Z,81.05
2019-02-07T07:51:08.231Z,80.13
2019-02-07T07:54:09.467Z,80.20
2019-02-07T07:57:07.494Z,80.17
2019-02-07T07:59:55.355Z,79.78
2019-02-07T08:02:43.298Z,79.55
2019-02-07T08:05:35.965Z,80.10
2019-02-07T08:08:29.213Z,79.80
2019-02-07T08:11:19.540Z,79.44
2019-02-07T08:14:17.334Z,80.12
2019-02-07T08:17:24.636Z,79.92
2019-02-07T08:20:16.123Z,79.89
2019-02-07T08:23:07.721Z,79.33
2019-02-07T08:26:05.524Z,79.33
2019-02-07T08:29:06.781Z,80.00
2019-02-07T08:31:50.811Z,79.16
2019-02-07T08:34:39.766Z,78.97
2019-02-07T08:37:34.962Z,79.36
2019-02-07T08:40:38.008Z,80.05
2019-02-07T08:43:33.218Z,80.75
2019-02-07T08:46:21.353Z,80.47
2019-02-07T08:49:08.804Z,81.15
2019-02-07T08:51:57.760Z,80.68
2019-02-07T08:54:46.702Z,81.45
2019-02-07T08:57:38.564Z,80.76
2019-02-07T09:00:25.120Z,81.41
2019-02-07T09:03:14.078Z,80.43
2019-02-07T09:06:13.076Z,81.18
2019-02-07T09:08:58.045Z,80.99
2019-02-07T09:11:47.376Z,81.24
2019-02-07T09:14:42.138Z,81.61
2019-02-07T09:17:36.980Z,81.73
2019-02-07T09:20:36.489Z,81.10
2019-02-07T09:23:24.356Z,81.59
2019-02-07T09:26:12.324Z,81.53
2019-02-07T09:29:04.058Z,82.18
2019-02-07T09:31:58.938Z,82.75
2019-02-07T09:34:40.214Z,83.53
2019-02-07T09:37:28.217Z,83.23
2019-02-07T09:40:17.458Z,83.73
2019-02-07T09:43:10.892Z,84.55
2019-02-07T09:46:00.364Z,85.06
2019-02-07T09:48:58.698Z,85.09
2019-02-07T09:51:47.850Z,84.83
2019-02-07T09:54:35.530Z,85.27
2019-02-07T09:57:27.263Z,85.12
2019-02-07T10:00:20.734Z,84.84
2019-02-07T10:03:09.504Z,85.25
2019-02-07T10:05:57.453Z,85.62
2019-02-07T10:08:40.569Z,85.28
2019-02-07T10:11:32.295Z,85.55
2019-02-07T10:14:36.952Z,85.76
2019-02-07T10:17:31.624Z,85.88
2019-02-07T10:20:26.586Z,86.96
2019-02-07T10:23:16.893Z,87.74
2019-02-07T10:26:11.915Z,88.23
2019-02-07T10:29:00.853Z,88.56
2019-02-07T10:31:48.858Z,88.71
2019-02-07T10:34:36.564Z,89.12
2019-02-07T10:37:19.518Z,89.12
2019-02-07T10:40:11.608Z,89.11
2019-02-07T10:42:59.544Z,89.10
2019-02-07T10:45:51.596Z,89.02
2019-02-07T10:48:44.563Z,88.79
2019-02-07T10:51:30.434Z,88.95
2019-02-07T10:54:18.297Z,89.14
2019-02-07T10:56:58.344Z,89.55
2019-02-07T10:59:56.427Z,89.94
2019-02-07T11:02:41.740Z,89.58
2019-02-07T11:05:43.509Z,89.61
2019-02-07T11:08:31.313Z,89.31
2019-02-07T11:11:20.180Z,89.56
2019-02-07T11:14:09.432Z,89.83
2019-02-07T11:16:57.085Z,89.07
2019-02-07T11:19:44.685Z,89.67
2019-02-07T11:22:42.883Z,89.42
2019-02-07T11:25:30.804Z,89.42
2019-02-07T11:28:35.240Z,89.44
2019-02-07T11:31:30.638Z,88.71
2019-02-07T11:34:19.595Z,89.03
2019-02-07T11:37:07.412Z,88.84
2019-02-07T11:39:51.930Z,88.65
2019-02-07T11:42:52.929Z,88.69
2019-02-07T11:45:47.700Z,88.83
2019-02-07T11:48:35.192Z,89.31
2019-02-07T11:51:13.286Z,89.21
2019-02-07T11:54:01.055Z,89.33
2019-02-07T11:56:59.458Z,89.21
2019-02-07T11:59:47.061Z,89.39
2019-02-07T12:02:48.321Z,89.50
2019-02-07T12:05:39.173Z,89.19
2019-02-07T12:08:28.135Z,88.89
2019-02-07T12:11:13.887Z,89.36
2019-02-07T12:13:50.728Z,89.55
2019-02-07T12:16:40.379Z,89.21
2019-02-07T12:19:28.253Z,89.22
2019-02-07T12:22:26.306Z,89.64
2019-02-07T12:25:21.029Z,89.35
2019-02-07T12:28:16.126Z,89.48
2019-02-07T12:31:05.232Z,90.01
2019-02-07T12:33:49.138Z,89.68
2019-02-07T12:36:28.009Z,89.80
2019-02-07T12:39:05.846Z,90.39
2019-02-07T12:42:07.103Z,90.32
2019-02-07T12:44:56.800Z,90.72
2019-02-07T12:47:45.769Z,89.97
2019-02-07T12:50:33.747Z,90.03
2019-02-07T12:53:30.115Z,90.29
2019-02-07T12:56:22.086Z,89.85
2019-02-07T12:59:03.724Z,90.04
2019-02-07T13:02:08.767Z,90.26
2019-02-07T13:05:09.667Z,90.28
2019-02-07T13:08:01.849Z,89.93
2019-02-07T13:10:50.832Z,90.38
2019-02-07T13:13:40.175Z,89.79
2019-02-07T13:16:37.992Z,90.31
2019-02-07T13:19:26.481Z,89.89
2019-02-07T13:22:15.269Z,89.56
2019-02-07T13:25:16.801Z,89.69
2019-02-07T13:28:11.810Z,89.54
2019-02-07T13:30:59.780Z,89.46
2019-02-07T13:33:43.937Z,88.85
2019-02-07T13:36:33.192Z,89.28
2019-02-07T13:39:23.079Z,89.29
2019-02-07T13:42:11.093Z,89.58
2019-02-07T13:44:58.972Z,89.17
2019-02-07T13:47:52.539Z,89.23
2019-02-07T13:50:46.137Z,88.94
2019-02-07T13:53:41.044Z,88.29
2019-02-07T13:56:24.561Z,87.74
2019-02-07T13:59:22.572Z,87.36
2019-02-07T14:02:17.735Z,86.96
2019-02-07T14:05:05.641Z,86.65
2019-02-07T14:08:00.437Z,86.41
2019-02-07T14:10:41.331Z,86.30
2019-02-07T14:13:29.570Z,86.39
2019-02-07T14:16:18.542Z,86.28
2019-02-07T14:19:05.434Z,85.84
2019-02-07T14:21:46.856Z,85.16
2019-02-07T14:24:38.572Z,84.94
2019-02-07T14:27:33.862Z,85.34
2019-02-07T14:30:30.120Z,85.49
2019-02-07T14:33:17.069Z,85.00
2019-02-07T14:36:06.124Z,84.90
2019-02-07T14:38:57.009Z,84.60
2019-02-07T14:41:35.234Z,84.89
2019-02-07T14:44:33.806Z,84.80
2019-02-07T14:47:03.872Z,85.32
2019-02-07T14:49:33.886Z,84.53
2019-02-07T14:52:03.898Z,84.23
2019-02-07T14:54:33.982Z,83.95
2019-02-07T14:57:04.000Z,84.08
2019-02-07T14:59:34.037Z,83.82
2019-02-07T15:02:04.053Z,83.87
2019-02-07T15:04:34.928Z,83.77
2019-02-07T15:07:05.062Z,83.75
2019-02-07T15:09:35.056Z,84.19
2019-02-07T15:12:05.181Z,84.50
2019-02-07T15:14:35.208Z,84.65
2019-02-07T15:17:05.732Z,85.07
2019-02-07T15:19:36.034Z,84.57
2019-02-07T15:22:06.188Z,83.79
2019-02-07T15:24:36.274Z,83.65
2019-02-07T15:27:06.308Z,83.33
2019-02-07T15:29:36.326Z,82.78
2019-02-07T15:32:06.358Z,82.30
2019-02-07T15:34:36.375Z,80.24
2019-02-07T15:37:06.528Z,79.31
2019-02-07T15:39:36.526Z,79.29
2019-02-07T15:42:06.526Z,77.94
2019-02-07T15:44:36.554Z,78.12
2019-02-07T15:47:08.947Z,77.12
2019-02-07T15:49:39.043Z,77.18
2019-02-07T15:52:09.396Z,78.72
2019-02-07T15:54:39.430Z,80.62
2019-02-07T15:57:09.488Z,80.37
2019-02-07T15:59:54.527Z,80.77
2019-02-07T16:02:28.379Z,82.13
2019-02-07T16:04:58.530Z,84.16
2019-02-07T16:07:28.571Z,84.85
2019-02-07T16:09:58.626Z,85.52
2019-02-07T16:12:28.817Z,85.58
2019-02-07T16:14:58.817Z,85.73
2019-02-07T16:17:28.871Z,85.83
2019-02-07T16:19:58.955Z,85.87
2019-02-07T16:22:28.942Z,85.95
2019-02-07T16:24:59.022Z,85.63
2019-02-07T16:27:28.960Z,85.61
2019-02-07T16:29:59.000Z,85.98
2019-02-07T16:32:28.974Z,85.25
2019-02-07T16:34:59.007Z,84.86
2019-02-07T16:37:29.109Z,84.27
2019-02-07T16:39:59.506Z,84.04
2019-02-07T16:42:29.588Z,84.14
2019-02-07T16:44:59.776Z,83.96
2019-02-07T16:47:29.836Z,84.01
2019-02-07T16:49:59.876Z,83.76
2019-02-07T16:52:29.935Z,83.68
2019-02-07T16:54:59.926Z,83.16
2019-02-07T16:57:29.949Z,83.04
2019-02-07T16:59:59.941Z,83.40
2019-02-07T17:02:29.988Z,83.37
2019-02-07T17:04:59.973Z,83.21
2019-02-07T17:07:30.127Z,82.86
2019-02-07T17:10:00.327Z,83.36
2019-02-07T17:12:30.387Z,82.81
2019-02-07T17:15:00.379Z,83.08
2019-02-07T17:17:30.415Z,83.29
2019-02-07T17:20:00.463Z,83.29
2019-02-07T17:22:30.911Z,83.42
2019-02-07T17:25:02.261Z,83.19
2019-02-07T17:27:32.325Z,83.25
2019-02-07T17:30:03.441Z,83.23
2019-02-07T17:32:33.457Z,83.31
2019-02-07T17:35:03.550Z,83.45
2019-02-07T17:37:33.975Z,82.89
2019-02-07T17:40:04.970Z,83.02
2019-02-07T17:42:35.047Z,82.68
2019-02-07T17:45:05.736Z,83.01
2019-02-07T17:47:35.784Z,83.42
2019-02-07T17:50:10.334Z,83.52
2019-02-07T17:52:40.365Z,83.63
2019-02-07T17:55:13.533Z,83.55
2019-02-07T17:57:43.549Z,83.00
2019-02-07T18:00:22.793Z,83.05
2019-02-07T18:02:52.839Z,83.13
2019-02-07T18:05:22.932Z,83.18
2019-02-07T18:07:52.985Z,83.18
2019-02-07T18:10:22.973Z,83.32
2019-02-07T18:12:53.041Z,83.50
2019-02-07T18:15:23.526Z,83.61
2019-02-07T18:17:53.549Z,83.41
2019-02-07T18:20:23.549Z,83.46
2019-02-07T18:22:53.570Z,83.78
2019-02-07T18:25:23.551Z,83.93
2019-02-07T18:27:53.566Z,84.26
2019-02-07T18:30:23.979Z,83.40
2019-02-07T18:32:53.999Z,83.63
2019-02-07T18:35:24.359Z,83.55
2019-02-07T18:37:54.384Z,83.31
2019-02-07T18:40:25.629Z,83.35
2019-02-07T18:42:55.844Z,83.10
2019-02-07T18:45:25.938Z,83.25
2019-02-07T18:47:55.999Z,83.36
2019-02-07T18:50:28.670Z,83.08
2019-02-07T18:52:58.685Z,83.18
2019-02-07T18:55:28.809Z,83.27
2019-02-07T18:57:59.165Z,83.32
2019-02-07T19:00:33.070Z,83.60
2019-02-07T19:03:03.071Z,83.67
2019-02-07T19:05:33.223Z,83.91
2019-02-07T19:08:03.323Z,84.11
2019-02-07T19:10:33.345Z,83.92
2019-02-07T19:13:03.831Z,84.13
2019-02-07T19:15:42.626Z,84.62
2019-02-07T19:18:12.719Z,84.44
2019-02-07T19:20:42.736Z,84.36
2019-02-07T19:23:12.751Z,84.60
2019-02-07T19:25:43.190Z,84.94
2019-02-07T19:28:13.276Z,85.24
2019-02-07T19:30:43.560Z,85.47
2019-02-07T19:33:13.565Z,85.60
2019-02-07T19:35:43.596Z,85.97
2019-02-07T19:38:13.669Z,85.54
2019-02-07T19:40:44.170Z,84.89
2019-02-07T19:43:14.208Z,84.65
2019-02-07T19:45:44.248Z,85.02
2019-02-07T19:48:14.365Z,85.26
2019-02-07T19:50:44.381Z,85.26
2019-02-07T19:53:14.376Z,85.06
2019-02-07T19:55:44.432Z,85.24
2019-02-07T19:58:14.520Z,85.33
2019-02-07T20:00:44.903Z,84.83
2019-02-07T20:03:14.978Z,84.59
2019-02-07T20:05:45.123Z,84.71
2019-02-07T20:08:15.266Z,84.52
2019-02-07T20:10:45.275Z,84.82
2019-02-07T20:13:15.341Z,84.58
2019-02-07T20:15:45.471Z,84.65
2019-02-07T20:18:15.497Z,84.19
2019-02-07T20:20:45.762Z,84.28
2019-02-07T20:23:15.795Z,83.94
2019-02-07T20:25:45.850Z,84.49
2019-02-07T20:28:15.889Z,84.37
2019-02-07T20:30:45.905Z,84.63
2019-02-07T20:33:15.938Z,84.47
2019-02-07T20:35:46.098Z,84.33
2019-02-07T20:38:16.137Z,84.53
2019-02-07T20:40:46.444Z,84.56
2019-02-07T20:43:16.491Z,84.62
2019-02-07T20:45:46.497Z,84.37
2019-02-07T20:48:16.540Z,84.30
2019-02-07T20:50:46.539Z,84.17
2019-02-07T20:53:17.745Z,84.57
2019-02-07T20:55:48.046Z,84.74
2019-02-07T20:58:18.090Z,84.50
2019-02-07T21:00:48.189Z,84.62
2019-02-07T21:03:18.270Z,84.53
2019-02-07T21:05:48.312Z,84.47
2019-02-07T21:08:20.813Z,83.85
2019-02-07T21:10:51.201Z,83.95
2019-02-07T21:13:21.252Z,83.53
2019-02-07T21:15:51.315Z,83.04
2019-02-07T21:18:21.392Z,83.13
2019-02-07T21:20:51.414Z,83.17
2019-02-07T21:23:21.464Z,83.10
2019-02-07T21:25:52.837Z,84.15
2019-02-07T21:28:22.857Z,85.77
2019-02-07T21:31:01.064Z,86.39
2019-02-07T21:33:31.186Z,86.66
2019-02-07T21:36:03.640Z,87.16
2019-02-07T21:38:33.929Z,87.48
2019-02-07T21:41:04.298Z,87.06
2019-02-07T21:43:34.713Z,87.86
2019-02-07T21:46:04.749Z,88.34
2019-02-07T21:48:34.739Z,87.66
2019-02-07T21:51:05.122Z,88.03
2019-02-07T21:53:35.235Z,87.73
2019-02-07T21:56:05.391Z,88.39
2019-02-07T21:58:35.420Z,88.42
2019-02-07T22:01:05.810Z,88.30
2019-02-07T22:03:35.838Z,88.65
2019-02-07T22:06:05.849Z,88.80
2019-02-07T22:08:36.168Z,88.46
2019-02-07T22:11:06.162Z,88.49
2019-02-07T22:13:36.184Z,88.68
2019-02-07T22:16:06.243Z,88.77
2019-02-07T22:18:36.615Z,88.50
2019-02-07T22:21:09.622Z,88.50
2019-02-07T22:23:39.654Z,88.51
2019-02-07T22:26:09.670Z,88.66
2019-02-07T22:28:39.737Z,88.68
2019-02-07T22:31:09.789Z,88.59
2019-02-07T22:33:39.818Z,88.29
2019-02-07T22:36:09.837Z,88.35
2019-02-07T22:38:39.921Z,88.49
2019-02-07T22:41:09.987Z,88.39
2019-02-07T22:43:40.030Z,88.52
2019-02-07T22:46:10.042Z,88.36
2019-02-07T22:48:40.152Z,88.58
2019-02-07T22:51:10.622Z,88.43
2019-02-07T22:53:40.648Z,88.45
2019-02-07T22:56:11.028Z,87.99
2019-02-07T22:58:41.155Z,87.90
2019-02-07T23:01:33.185Z,88.44
2019-02-07T23:04:06.714Z,88.42
2019-02-07T23:06:36.740Z,88.41
2019-02-07T23:09:11.001Z,88.19
2019-02-07T23:11:41.161Z,88.12
2019-02-07T23:14:11.480Z,88.12
2019-02-07T23:16:41.517Z,87.77
2019-02-07T23:19:11.531Z,88.01
2019-02-07T23:21:41.505Z,87.71
2019-02-07T23:24:11.611Z,87.85
2019-02-07T23:26:55.021Z,87.83
2019-02-07T23:29:25.644Z,88.14
2019-02-07T23:32:05.733Z,88.40
2019-02-07T23:34:36.757Z,88.31
2019-02-07T23:37:06.716Z,88.10
2019-02-07T23:39:36.705Z,88.01
2019-02-07T23:42:06.800Z,88.08
2019-02-07T23:44:36.760Z,88.25
2019-02-07T23:47:06.729Z,88.71
2019-02-07T23:49:36.766Z,89.09
2019-02-07T23:52:07.048Z,88.74
2019-02-07T23:54:37.033Z,88.96
2019-02-07T23:57:07.120Z,89.10
2019-02-07T23:59:37.177Z,89.16
